Sunday, April 22, 2018, 2:05 PM EDT
Back to Local

KAUG, Augusta State Airport

Location: Augusta, ME, United States Lat: 44.317
Local Time: 2:05 PM EDT (18:05 GMT) Lon: -69.8
Time Zone: US/Eastern Elev: 351 ft

Show me the last for .
Show Coded

Time T Td Feel RH Dir Speed Gust Alt SLP Vis Weather Sky Remarks
2018-04-22 13:53 55 14 - 19 340° 14 22 30.28 30.28 10 CLR 6-hr Min Temp (2pm): 41.0°F
6-hr Max Temp (2pm): 55.9°F
2018-04-22 12:53 54 15 - 21 - - - 30.28 30.29 10 CLR None
2018-04-22 11:53 53 18 - 24 330° 14 20 30.29 30.30 10 CLR None
2018-04-22 10:53 50 17 48 26 Variable 5 - 30.30 30.30 10 CLR None
2018-04-22 09:53 48 16 43 27 330° 12 - 30.31 30.32 10 CLR None
2018-04-22 08:53 45 21 43 38 300° 5 - 30.30 30.31 10 CLR None
2018-04-22 07:53 41 23 36 48 310° 7 - 30.30 30.31 10 CLR 6-hr Min Temp (8am): 35.1°F
6-hr Max Temp (8am): 41.0°F
2018-04-22 06:53 37 23 33 56 300° 5 - 30.29 30.30 10 CLR None
2018-04-22 05:53 36 23 30 58 310° 7 - 30.27 30.28 10 CLR None
2018-04-22 04:53 36 23 30 58 300° 7 - 30.26 30.27 10 CLR None
2018-04-22 03:53 37 23 32 56 300° 6 - 30.26 30.27 10 CLR None
2018-04-22 02:53 38 23 33 54 290° 6 - 30.25 30.26 10 CLR None
2018-04-22 01:53 40 23 37 50 290° 5 - 30.25 30.25 10 CLR 6-hr Min Temp (2am): 39.9°F
6-hr Max Temp (2am): 46.9°F
2018-04-22 00:53 40 23 37 50 280° 5 - 30.25 30.26 10 CLR 24-hr Min Temp (1am): 34.0°F
24-hr Max Temp (1am): 53.1°F
2018-04-21 23:53 41 22 38 46 280° 5 - 30.25 30.26 10 CLR None
2018-04-21 22:53 42 21 40 42 270° 3 - 30.26 30.27 10 BKN085 None
2018-04-21 21:53 43 22 40 42 290° 5 - 30.26 30.27 10 CLR None
2018-04-21 20:53 46 22 42 38 310° 7 - 30.25 30.26 10 OVC080 None
2018-04-21 19:53 47 21 43 35 320° 9 - 30.23 30.23 10 BKN075 6-hr Min Temp (8pm): 46.9°F
6-hr Max Temp (8pm): 53.1°F
2018-04-21 18:53 49 22 45 34 310° 9 - 30.20 30.20 10 OVC080 None
2018-04-21 17:53 50 21 43 31 330° 16 23 30.18 30.19 10 CLR None
2018-04-21 16:53 51 21 - 30 320° 15 23 30.17 30.17 10 BKN070 None
2018-04-21 15:53 53 21 - 28 290° 13 28 30.16 30.16 10 BKN070 Peak wind: 31 mph (27 kts) from 310° at 24 min
2018-04-21 14:53 51 23 - 33 320° 12 18 30.16 30.17 10 OVC065 None

Support USWX by starting your Amazon purchase here.